Main page
METAR-TAF:

METAR-TAF

Airports :

Pittsburgh International Airport

Pittsburgh, Pennsylvania, United States

latitude: 40-30-14N, longitude: 080-15-59W, elevation: 366 m

Current weather observation

The report was made 40 minutes ago, at 10:51 UTC
Calm wind
Temperature 18°C
Humidity 100%
Pressure 1017 hPa
Visibility: 11.3 km
Broken clouds at a height of 25000 ft

METAR: KPIT 151051Z 00000KT 7SM BKN250 18/18 A3004 RMK AO2 SLP172 T01780178

Time: 07:31 (11:31 UTC)

Forecast

The report was made 29 minutes ago, at 11:02 UTC
Forecast valid from 15 at 11 UTC to 16 at 12 UTC
Wind kt from the North
Visibility: 10 km
Few clouds at a height of 25000 ft
From 15 at 1500 UTC
Wind 4 kt from the West/Southwest
Visibility: 10 km
Scattered clouds at a height of 5000 ft
Broken clouds at a height of 25000 ft
From 16 at 0300 UTC
Wind kt from the North
Visibility: 10 km
Broken clouds at a height of 8000 ft

TAF: KPIT 151102Z 1511/1612 00000KT P6SM FEW250 FM151500 24004KT P6SM SCT050 BKN250 FM160300 00000KT P6SM BKN080

Weather observations and forecasts of more than 4000 airports (METAR and TAF reports).

The available stations are represented by yellow and red dots on the map.

Hover mouse over dot to see the name of the station.

Then click to see weather observations and forecasts.

To change the map : click on the green buttons with a black cross to zoom in, on the green button with a dash to zoom out, or on the green arrows for adjacent maps.


METAR-TAF: